• Join FlightAware (Why Join?)
  • Login
  • US Flag 
02:20PM EDT


 

Airport Tracker/Info


-or-


 

Live Flight TrackerFlight Track Log ✈ N53NW ✈ 23-Oct-2013 ✈ KDFW - KGYI

Flight Track Log - Related Links

Times and Time Zones

All times are in EDT time to prevent confusion due to time zone crossing. See the N53NW flight status page for this flight to view local times or setup timezone preferences in your user account.

Time Position Orientation Groundspeed Altitude Reporting Facility
EDT Latitude Longitude Course Direction KTS MPH feet Rate Location/Type
01:12PM 32.9000 -97.0333 164° South 159 183 1,000  Level Dallas / Fort Worth TRACON
01:13PM 32.8500 -97.0167 164° South 238 274 2,700 2,760 Climbing Dallas / Fort Worth TRACON
01:14PM 32.7833 -96.9833 157° South 243 280 6,000 3,000 Climbing Dallas / Fort Worth TRACON
01:15PM 32.7667 -96.9167 107° East 260 299 9,000 1,980 Climbing Dallas / Fort Worth TRACON
01:16PM 32.7833 -96.8333 77° East 273 314 10,000 1,080 Climbing Dallas / Fort Worth TRACON
01:17PM 32.8500 -96.8167 12° North 284 327 11,100 480 Climbing Dallas / Fort Worth TRACON
01:18PM 32.9333 -96.8000 10° North 298 343 11,000 -60 Descending Dallas / Fort Worth TRACON
01:19PM 33.0333 -96.8167 352° North 296 341 11,000  Level Dallas / Fort Worth TRACON
01:20PM 33.1000 -96.8500 337° Northwest 296 341 11,100  Climbing Dallas / Fort Worth TRACON
01:21PM 33.1642 -96.8700 345° North 318 366 11,100  Level Fort Worth Center
01:22PM 33.2456 -96.8967 345° North 303 349 11,100  Level Fort Worth Center
01:23PM 33.3189 -96.9186 346° North 296 341 11,100  Level Fort Worth Center
01:24PM 33.4067 -96.9481 344° North 301 346 11,100 -180 Level Fort Worth Center
01:25PM 33.4775 -96.9503 359° North 296 341 10,800 -1,320 Descending Fort Worth Center
01:26PM 33.5442 -96.8850 39° Northeast 259 298 8,500 -2,340 Descending Fort Worth Center
01:27PM 33.5897 -96.8275 46° Northeast 258 297 6,200 -2,340 Descending Fort Worth Center
01:28PM 33.6478 -96.7697 40° Northeast 259 298 3,900 -1,860 Descending Fort Worth Center
01:29PM 33.6872 -96.7194 47° Northeast 237 273 2,500 -900 Descending Fort Worth Center
01:30PM 33.7458 -96.7217 358° North 184 212 2,200 -240 Descending Fort Worth Center
01:31PM 33.7917 -96.7136 North 175 201 2,100 -120 Descending Fort Worth Center